Time;durP1;ratioP1;P1;durP2;ratioP2;P2;SDS_P1;SDS_P2;PMS_P1;PMS_P2;Temp;Humidity;BMP_temperature;BMP_pressure;BME280_temperature;BME280_humidity;BME280_pressure;Samples;Min_cycle;Max_cycle;Signal;HPM_P1;HPM_P2
2022/12/17 13:07:36;;;;;;;9.23;8.00;;;;;;;8.97;45.65;102582.66;6085611;28;20575;-71
2022/12/17 13:10:57;;;;;;;9.67;7.77;;;;;;;8.82;46.21;102588.88;6072064;28;20259;-71
2022/12/17 13:14:22;;;;;;;14.97;10.17;;;;;;;8.26;47.87;102591.88;6096513;28;20339;-71
2022/12/17 13:17:54;;;;;;;13.30;7.17;;;;;;;8.43;47.42;102591.88;6091424;28;20639;-71
2022/12/17 13:21:28;;;;;;;10.63;7.70;;;;;;;7.82;48.63;102588.72;6084037;28;20262;-71
2022/12/17 13:24:51;;;;;;;9.17;7.97;;;;;;;6.14;52.85;102586.84;6078861;28;20669;-71
2022/12/17 13:28:27;;;;;;;10.23;7.53;;;;;;;6.71;51.25;102591.44;6091901;28;20264;-71
2022/12/17 13:31:58;;;;;;;13.40;7.87;;;;;;;5.93;53.56;102598.47;6087750;28;20228;-71
2022/12/17 13:35:31;;;;;;;8.47;6.80;;;;;;;6.01;53.15;102604.34;6089649;28;20323;-70
2022/12/17 13:39:02;;;;;;;8.00;7.20;;;;;;;5.89;53.70;102592.38;6095106;28;20449;-71
2022/12/17 13:42:28;;;;;;;16.10;7.83;;;;;;;5.44;54.56;102596.91;6095320;28;20239;-70
2022/12/17 13:45:50;;;;;;;12.63;7.37;;;;;;;5.53;54.42;102599.19;6081849;28;20315;-71
2022/12/17 13:49:18;;;;;;;7.37;6.07;;;;;;;4.33;56.58;102594.91;6098788;28;21055;-71
2022/12/17 13:52:39;;;;;;;11.50;7.27;;;;;;;4.44;56.90;102603.41;6086261;28;20249;-70
2022/12/17 13:56:01;;;;;;;10.40;6.27;;;;;;;3.90;57.96;102603.50;6081131;28;20798;-70
2022/12/17 13:59:24;;;;;;;13.97;7.57;;;;;;;4.05;58.02;102613.66;6094554;28;20264;-71
2022/12/17 14:02:45;;;;;;;7.90;6.10;;;;;;;3.72;58.80;102614.78;6087498;28;20237;-71
2022/12/17 14:06:11;;;;;;;7.83;6.23;;;;;;;3.73;59.05;102613.00;6081164;28;20292;-71
2022/12/17 14:09:35;;;;;;;8.23;5.70;;;;;;;3.40;60.31;102619.41;6098266;28;20232;-71
2022/12/17 14:13:05;;;;;;;5.63;5.17;;;;;;;3.04;61.88;102626.72;6091301;28;20241;-69
2022/12/17 14:16:28;;;;;;;12.97;7.27;;;;;;;2.89;62.45;102628.06;6086480;28;20227;-70
2022/12/17 14:20:04;;;;;;;9.17;6.03;;;;;;;2.88;62.66;102628.97;6089253;28;22182;-71
2022/12/17 14:23:29;;;;;;;10.17;7.33;;;;;;;2.93;62.42;102639.47;6086194;29;20228;-69
2022/12/17 14:26:53;;;;;;;8.83;5.77;;;;;;;2.78;62.63;102640.78;6086313;29;20224;-71
2022/12/17 14:30:24;;;;;;;7.77;5.90;;;;;;;2.53;63.09;102645.06;6090227;29;20232;-71
2022/12/17 14:33:45;;;;;;;11.60;7.93;;;;;;;2.70;63.03;102647.25;6085433;29;21041;-70
2022/12/17 14:37:16;;;;;;;12.07;7.30;;;;;;;3.09;62.09;102649.63;6087200;29;20232;-70
2022/12/17 14:40:37;;;;;;;6.23;5.63;;;;;;;2.87;62.40;102637.00;6080268;29;20251;-70
2022/12/17 14:44:00;;;;;;;12.37;6.87;;;;;;;2.62;63.45;102644.81;6096951;29;20217;-70
2022/12/17 14:47:25;;;;;;;9.53;6.20;;;;;;;2.60;63.03;102640.44;6091838;28;20236;-71
2022/12/17 14:50:55;;;;;;;13.17;7.33;;;;;;;2.59;62.78;102650.19;6083586;28;20240;-69
2022/12/17 14:54:19;;;;;;;11.83;7.47;;;;;;;2.56;63.57;102650.31;6092522;28;20236;-70
2022/12/17 14:57:40;;;;;;;11.73;7.73;;;;;;;2.52;63.80;102645.09;6076593;28;20650;-70
2022/12/17 15:01:07;;;;;;;10.30;7.00;;;;;;;2.18;65.02;102658.41;6079278;28;20565;-70
2022/12/17 15:04:31;;;;;;;8.10;7.17;;;;;;;1.89;66.48;102655.59;6085991;28;20331;-73
2022/12/17 15:07:51;;;;;;;9.93;7.00;;;;;;;1.77;66.28;102663.88;6093581;28;20308;-70
2022/12/17 15:11:15;;;;;;;9.33;5.47;;;;;;;1.56;67.18;102660.81;6081915;28;20238;-71
2022/12/17 15:14:35;;;;;;;10.17;6.33;;;;;;;1.45;67.49;102665.50;6088381;28;20224;-70
2022/12/17 15:17:56;;;;;;;10.13;6.83;;;;;;;1.00;68.92;102673.59;6087902;28;20232;-70
2022/12/17 15:21:19;;;;;;;9.37;7.30;;;;;;;0.97;69.62;102671.00;6082282;28;20252;-70
2022/12/17 15:24:40;;;;;;;8.87;6.43;;;;;;;1.16;69.29;102675.00;6092310;28;20237;-71
2022/12/17 15:28:02;;;;;;;8.90;6.57;;;;;;;1.09;69.42;102670.72;6083620;28;20225;-70
2022/12/17 15:31:22;;;;;;;9.30;6.07;;;;;;;1.17;69.23;102669.66;6095154;28;20244;-70
2022/12/17 15:34:43;;;;;;;7.53;6.23;;;;;;;1.22;68.93;102670.44;6091455;28;20561;-70
2022/12/17 15:38:06;;;;;;;10.17;6.47;;;;;;;1.04;70.00;102667.31;6091375;28;20606;-71
2022/12/17 15:45:07;;;;;;;10.00;6.70;;;;;;;1.02;69.48;102675.31;6085821;28;20237;-70
2022/12/17 15:48:28;;;;;;;9.33;6.20;;;;;;;0.83;70.33;102660.66;6074167;28;20233;-70
2022/12/17 15:51:49;;;;;;;6.57;5.90;;;;;;;0.49;70.93;102663.09;6087264;28;20702;-70
2022/12/17 15:55:12;;;;;;;12.43;7.63;;;;;;;0.62;70.90;102680.53;6077375;28;20247;-70
2022/12/17 15:58:32;;;;;;;10.87;7.00;;;;;;;0.59;70.85;102675.28;6076573;28;20236;-70
2022/12/17 16:01:53;;;;;;;10.03;7.07;;;;;;;0.49;71.76;102686.09;6064211;28;20248;-70
2022/12/17 16:05:14;;;;;;;10.43;7.73;;;;;;;0.69;70.71;102676.84;6076222;28;20240;-70
2022/12/17 16:08:38;;;;;;;7.13;6.03;;;;;;;0.37;71.34;102683.66;6053701;29;20237;-70
2022/12/17 16:12:00;;;;;;;14.67;5.93;;;;;;;0.75;72.31;102686.47;6056199;29;20239;-72
2022/12/17 16:15:21;;;;;;;9.07;5.90;;;;;;;0.37;72.61;102691.63;6062927;28;20237;-72
2022/12/17 16:18:42;;;;;;;12.33;7.77;;;;;;;0.11;73.00;102696.47;6078917;29;20232;-71
2022/12/17 16:22:03;;;;;;;10.93;6.37;;;;;;;0.17;72.36;102696.41;6078276;29;20263;-71
2022/12/17 16:25:24;;;;;;;11.57;8.30;;;;;;;0.20;72.70;102696.31;6074500;28;20241;-72
2022/12/17 16:28:46;;;;;;;10.07;6.40;;;;;;;-0.07;73.18;102700.31;6088368;28;20232;-72
2022/12/17 16:32:07;;;;;;;11.07;8.30;;;;;;;0.07;72.51;102708.91;6075126;28;20267;-73
2022/12/17 16:35:29;;;;;;;11.33;8.03;;;;;;;-0.02;72.92;102709.03;6064186;28;20244;-73
2022/12/17 16:38:52;;;;;;;11.43;6.87;;;;;;;-0.09;73.01;102703.00;6089927;28;20229;-72
2022/12/17 16:42:12;;;;;;;13.17;7.73;;;;;;;-0.27;73.19;102700.59;6073806;28;20331;-72
2022/12/17 16:45:35;;;;;;;8.50;6.13;;;;;;;-0.15;72.83;102711.00;6068269;28;20229;-72
2022/12/17 16:48:57;;;;;;;12.53;7.67;;;;;;;0.03;72.44;102714.28;6096220;28;20567;-73
2022/12/17 16:52:18;;;;;;;10.57;6.63;;;;;;;-0.04;72.58;102711.72;6088162;28;20310;-73
2022/12/17 16:55:44;;;;;;;13.87;6.60;;;;;;;-0.39;73.95;102708.75;6074227;28;20236;-73
2022/12/17 16:59:06;;;;;;;14.50;9.50;;;;;;;-0.44;74.13;102718.50;6094751;28;20228;-73
2022/12/17 17:02:29;;;;;;;17.43;8.97;;;;;;;-0.58;74.94;102707.25;6088405;28;20634;-72
2022/12/17 17:05:50;;;;;;;8.20;6.87;;;;;;;-0.42;75.36;102718.50;6078195;28;20243;-72
2022/12/17 17:09:12;;;;;;;8.90;7.97;;;;;;;-0.55;75.61;102725.75;6089625;28;20244;-71
2022/12/17 17:12:33;;;;;;;9.97;8.97;;;;;;;-0.65;76.69;102721.47;6082040;28;20240;-72
2022/12/17 17:15:54;;;;;;;9.43;7.30;;;;;;;-0.79;77.03;102731.34;6076949;28;20240;-72
2022/12/17 17:19:17;;;;;;;12.40;7.50;;;;;;;-0.70;76.47;102719.75;6091126;28;20237;-73
2022/12/17 17:22:38;;;;;;;8.63;7.37;;;;;;;-0.61;76.16;102725.84;6055597;28;20744;-72
2022/12/17 17:25:58;;;;;;;10.93;7.53;;;;;;;-0.73;77.23;102733.91;6078428;28;20228;-72
2022/12/17 17:29:19;;;;;;;9.20;7.37;;;;;;;-0.60;75.93;102742.56;6090720;28;20561;-73
2022/12/17 17:32:39;;;;;;;10.67;7.73;;;;;;;-0.85;76.80;102742.00;6080123;28;20237;-72
2022/12/17 17:36:06;;;;;;;13.53;10.20;;;;;;;-0.88;76.58;102744.72;6077654;28;20235;-72
2022/12/17 17:39:27;;;;;;;9.13;7.67;;;;;;;-0.89;76.42;102750.88;6076674;29;20579;-73
2022/12/17 17:42:48;;;;;;;11.73;8.77;;;;;;;-1.07;77.46;102751.97;6085968;29;20679;-72
2022/12/17 17:46:12;;;;;;;19.03;8.93;;;;;;;-1.05;77.04;102744.91;6077581;29;20232;-72
2022/12/17 17:49:33;;;;;;;12.57;8.93;;;;;;;-0.97;76.86;102748.34;6087363;29;20598;-73
2022/12/17 17:52:55;;;;;;;11.00;9.40;;;;;;;-0.91;76.49;102763.25;6091480;28;20653;-73
2022/12/17 17:56:19;;;;;;;9.37;8.43;;;;;;;-0.94;76.43;102766.81;6079498;28;20243;-73
2022/12/17 17:59:39;;;;;;;11.97;10.73;;;;;;;-1.15;77.19;102774.97;6087459;29;20246;-72
2022/12/17 18:03:00;;;;;;;13.30;9.57;;;;;;;-1.48;78.41;102763.88;6087042;28;20236;-73
2022/12/17 18:06:21;;;;;;;13.80;9.27;;;;;;;-1.37;77.92;102769.91;6075407;29;20227;-73
2022/12/17 18:09:44;;;;;;;8.43;7.63;;;;;;;-1.42;78.27;102764.69;6084511;29;20671;-72
2022/12/17 18:16:45;;;;;;;8.73;7.13;;;;;;;-1.26;78.22;102778.63;6083983;28;20232;-73
2022/12/17 18:20:08;;;;;;;11.70;8.43;;;;;;;-1.59;79.29;102779.81;6093340;29;20616;-75
2022/12/17 18:23:29;;;;;;;15.53;9.97;;;;;;;-1.49;79.04;102784.13;6060017;29;20982;-73
2022/12/17 18:26:52;;;;;;;13.63;9.37;;;;;;;-1.41;78.84;102786.69;6061824;29;20244;-73
2022/12/17 18:30:15;;;;;;;18.17;8.40;;;;;;;-1.35;79.19;102787.53;6059967;29;20237;-73
2022/12/17 18:33:37;;;;;;;11.07;8.10;;;;;;;-1.47;79.64;102792.03;6079418;29;20245;-73
2022/12/17 18:36:58;;;;;;;9.70;8.27;;;;;;;-1.44;79.03;102790.25;6082196;28;20555;-73
2022/12/17 18:40:19;;;;;;;9.13;7.70;;;;;;;-1.50;79.58;102787.66;6083196;29;20370;-75
2022/12/17 18:43:40;;;;;;;15.73;8.07;;;;;;;-1.52;79.21;102792.06;6075884;28;20245;-73
2022/12/17 18:47:01;;;;;;;13.27;9.57;;;;;;;-1.63;79.25;102804.53;6078061;28;20236;-72
2022/12/17 18:50:22;;;;;;;15.20;9.03;;;;;;;-1.47;79.35;102805.25;6076339;28;20838;-73
2022/12/17 18:53:43;;;;;;;11.33;8.77;;;;;;;-1.58;79.68;102810.63;6082895;28;20581;-72
2022/12/17 18:57:04;;;;;;;13.70;7.90;;;;;;;-1.77;80.63;102804.63;6082163;28;20239;-73
2022/12/17 19:00:26;;;;;;;15.67;9.03;;;;;;;-1.84;80.75;102813.50;6068565;28;20242;-72
2022/12/17 19:03:47;;;;;;;12.93;7.20;;;;;;;-1.75;80.06;102810.75;6085259;28;20244;-73
2022/12/17 19:07:08;;;;;;;8.73;7.03;;;;;;;-1.73;80.38;102814.28;6080016;28;20235;-73
2022/12/17 19:10:29;;;;;;;18.93;8.67;;;;;;;-1.97;80.96;102817.09;6075435;28;20252;-73
2022/12/17 19:13:50;;;;;;;12.53;8.83;;;;;;;-1.99;80.76;102815.34;6091296;28;20228;-72
2022/12/17 19:17:12;;;;;;;14.07;8.70;;;;;;;-1.77;80.54;102819.59;6086137;28;20235;-72
2022/12/17 19:20:33;;;;;;;14.03;8.73;;;;;;;-1.85;80.74;102821.41;6076072;28;20240;-72
2022/12/17 19:23:56;;;;;;;11.60;9.13;;;;;;;-1.96;80.42;102831.19;6097435;28;20252;-72
2022/12/17 19:27:17;;;;;;;12.90;7.93;;;;;;;-1.97;80.66;102838.22;6090436;28;20232;-73
2022/12/17 19:30:38;;;;;;;10.47;8.97;;;;;;;-2.24;82.05;102845.41;6071120;28;20594;-73
2022/12/17 19:34:01;;;;;;;11.97;9.90;;;;;;;-2.25;81.70;102847.16;6094546;28;20224;-74
2022/12/17 19:37:22;;;;;;;11.63;8.43;;;;;;;-2.21;81.69;102851.56;6078589;28;20235;-74
2022/12/17 19:40:44;;;;;;;16.20;9.03;;;;;;;-2.20;81.41;102850.69;6076655;28;20613;-74
2022/12/17 19:44:10;;;;;;;9.83;8.83;;;;;;;-2.16;81.46;102841.84;6088452;28;20264;-74
2022/12/17 19:47:31;;;;;;;11.40;10.13;;;;;;;-2.03;81.67;102847.94;6081327;28;20231;-73
2022/12/17 19:50:57;;;;;;;14.70;9.20;;;;;;;-1.88;81.58;102856.66;6070880;28;20244;-74
2022/12/17 19:54:18;;;;;;;11.47;7.60;;;;;;;-1.98;81.54;102848.81;6088251;28;20251;-73
2022/12/17 19:57:39;;;;;;;13.67;9.20;;;;;;;-2.25;81.53;102841.03;6084463;28;20259;-74
2022/12/17 20:01:05;;;;;;;14.60;8.77;;;;;;;-2.26;82.61;102840.16;6073596;28;20311;-73
2022/12/17 20:04:26;;;;;;;15.47;9.30;;;;;;;-2.25;82.93;102846.31;6087366;28;20357;-73
2022/12/17 20:07:48;;;;;;;13.50;8.87;;;;;;;-2.27;81.65;102846.31;6079957;28;20228;-73
2022/12/17 20:14:46;;;;;;;19.20;9.03;;;;;;;-2.14;81.83;102858.56;6083666;28;20244;-73
2022/12/17 20:18:06;;;;;;;11.20;9.70;;;;;;;-2.31;81.78;102856.88;6088246;28;20675;-73
2022/12/17 20:21:28;;;;;;;9.23;8.37;;;;;;;-2.22;81.90;102856.84;6073287;28;20321;-73
2022/12/17 20:24:50;;;;;;;13.57;9.60;;;;;;;-2.25;81.77;102857.72;6083577;28;20324;-72
2022/12/17 20:28:10;;;;;;;12.00;10.30;;;;;;;-2.40;82.70;102856.94;6085744;28;20636;-73
2022/12/17 20:31:32;;;;;;;20.83;8.60;;;;;;;-2.54;83.27;102863.13;6074597;28;20247;-72
2022/12/17 20:34:53;;;;;;;11.43;10.03;;;;;;;-2.52;82.47;102863.13;6086525;28;20275;-74
2022/12/17 20:38:14;;;;;;;10.77;8.60;;;;;;;-2.47;82.81;102861.34;6080724;28;20245;-72
2022/12/17 20:41:36;;;;;;;13.90;7.87;;;;;;;-2.57;83.68;102863.16;6066847;28;20247;-74
2022/12/17 20:44:57;;;;;;;15.23;9.87;;;;;;;-2.70;83.07;102865.81;6077874;28;20237;-72
2022/12/17 20:48:18;;;;;;;8.73;7.90;;;;;;;-2.78;84.50;102870.25;6086700;28;20232;-71
2022/12/17 20:51:39;;;;;;;10.47;8.03;;;;;;;-2.82;83.85;102879.94;6074380;28;20247;-73
2022/12/17 20:55:00;;;;;;;11.70;8.50;;;;;;;-2.79;84.23;102876.38;6086142;28;20240;-71
2022/12/17 20:58:22;;;;;;;15.53;9.63;;;;;;;-2.88;84.77;102877.28;6086435;28;20233;-72
2022/12/17 21:01:44;;;;;;;12.53;7.90;;;;;;;-2.97;84.87;102872.03;6073727;28;20264;-69
2022/12/17 21:05:05;;;;;;;15.30;10.27;;;;;;;-2.92;84.18;102874.66;6076381;28;20240;-71
2022/12/17 21:08:26;;;;;;;15.13;8.33;;;;;;;-2.95;84.66;102886.09;6067703;28;20328;-70
2022/12/17 21:11:48;;;;;;;13.40;9.37;;;;;;;-2.69;83.97;102878.16;6065233;28;20228;-71
2022/12/17 21:15:10;;;;;;;10.53;9.43;;;;;;;-2.58;82.79;102881.63;6071177;28;20260;-73
2022/12/17 21:18:32;;;;;;;17.00;11.60;;;;;;;-2.70;82.66;102884.28;6072433;28;20248;-72
2022/12/17 21:21:53;;;;;;;11.93;8.57;;;;;;;-2.69;82.90;102891.34;6073581;28;20271;-71
2022/12/17 21:25:13;;;;;;;12.67;8.47;;;;;;;-2.86;83.65;102894.00;6074514;28;20260;-72
2022/12/17 21:28:36;;;;;;;12.27;9.03;;;;;;;-2.87;82.91;102894.00;6074302;28;20249;-73
2022/12/17 21:31:58;;;;;;;11.57;8.00;;;;;;;-2.76;83.63;102903.66;6074438;28;20310;-72
2022/12/17 21:35:19;;;;;;;10.87;8.40;;;;;;;-2.95;83.20;102906.31;6074169;28;20244;-72
2022/12/17 21:38:41;;;;;;;12.07;9.50;;;;;;;-3.01;83.94;102904.56;6083342;28;20241;-72
2022/12/17 21:45:41;;;;;;;12.67;8.33;;;;;;;-3.19;84.93;102915.09;6073440;28;20236;-70
2022/12/17 21:49:04;;;;;;;13.73;10.23;;;;;;;-3.11;84.29;102923.03;6093074;28;20943;-70
2022/12/17 21:52:25;;;;;;;16.07;9.27;;;;;;;-3.19;83.57;102922.16;6087066;28;20236;-72
2022/12/17 21:55:46;;;;;;;15.47;9.10;;;;;;;-3.16;83.68;102924.78;6062566;28;20248;-73
2022/12/17 21:59:07;;;;;;;13.93;10.33;;;;;;;-3.19;84.99;102916.88;6087160;28;20244;-72
2022/12/17 22:02:29;;;;;;;10.93;7.67;;;;;;;-3.35;84.59;102916.88;6079697;28;22724;-72
2022/12/17 22:05:51;;;;;;;10.90;8.93;;;;;;;-3.25;84.80;102923.00;6080134;28;20235;-71
2022/12/17 22:09:11;;;;;;;8.23;7.27;;;;;;;-3.19;83.10;102919.53;6087682;28;20244;-71
2022/12/17 22:16:11;;;;;;;8.20;7.00;;;;;;;-3.37;83.65;102916.00;6074892;28;20247;-69
2022/12/17 22:19:33;;;;;;;9.97;7.63;;;;;;;-3.43;84.93;102920.38;6088522;28;20232;-70
2022/12/17 22:22:56;;;;;;;10.47;7.17;;;;;;;-3.55;85.01;102926.50;6084135;28;20229;-70
2022/12/17 22:26:18;;;;;;;10.13;7.63;;;;;;;-3.50;84.34;102929.13;6088792;28;20236;-70
2022/12/17 22:33:18;;;;;;;9.27;8.37;;;;;;;-3.59;84.33;102921.22;6069104;28;20991;-75
2022/12/17 22:36:39;;;;;;;8.63;6.67;;;;;;;-3.54;85.05;102924.72;6079591;28;20224;-74
2022/12/17 22:40:02;;;;;;;10.70;7.27;;;;;;;-3.58;85.30;102923.84;6081362;28;20244;-71
2022/12/17 22:43:31;;;;;;;9.07;7.10;;;;;;;-3.45;83.80;102923.00;6085219;28;20236;-76
2022/12/17 22:46:52;;;;;;;12.63;9.13;;;;;;;-3.35;83.44;102924.78;6075260;28;20243;-74
2022/12/17 22:50:13;;;;;;;17.87;7.53;;;;;;;-3.22;82.38;102925.66;6089608;28;20251;-74
2022/12/17 22:53:34;;;;;;;8.57;7.67;;;;;;;-3.22;82.38;102930.06;6084351;28;20696;-70
2022/12/17 22:56:56;;;;;;;13.57;7.43;;;;;;;-3.44;82.61;102943.19;6073845;28;20619;-73
2022/12/17 23:00:23;;;;;;;10.63;8.13;;;;;;;-3.42;83.61;102941.44;6085430;28;20252;-70
2022/12/17 23:03:45;;;;;;;20.13;8.07;;;;;;;-3.56;82.99;102934.41;6078782;28;20583;-73
2022/12/17 23:07:06;;;;;;;11.70;8.60;;;;;;;-3.59;83.50;102923.88;6086518;28;20243;-71
2022/12/17 23:10:28;;;;;;;12.07;8.33;;;;;;;-3.73;83.23;102912.38;6070733;28;20232;-70
2022/12/17 23:13:50;;;;;;;14.37;7.10;;;;;;;-3.61;83.28;102917.72;6097301;28;20237;-72
2022/12/17 23:17:11;;;;;;;10.10;8.57;;;;;;;-3.62;83.47;102924.72;6082820;28;20240;-73
2022/12/17 23:20:34;;;;;;;15.63;7.47;;;;;;;-3.76;83.49;102920.31;6062962;28;20247;-71
2022/12/17 23:23:56;;;;;;;10.90;7.23;;;;;;;-3.58;83.34;102931.75;6083641;28;20236;-72
2022/12/17 23:27:17;;;;;;;9.03;7.60;;;;;;;-3.81;84.03;102925.56;6080839;28;20247;-72
2022/12/17 23:30:39;;;;;;;13.77;8.87;;;;;;;-3.84;84.80;102927.31;6066538;28;20290;-72
2022/12/17 23:34:00;;;;;;;10.77;7.70;;;;;;;-3.81;83.79;102945.75;6085673;28;20239;-72
2022/12/17 23:37:21;;;;;;;11.53;6.57;;;;;;;-3.84;84.33;102929.94;6090164;28;20315;-72
2022/12/17 23:40:42;;;;;;;7.33;6.63;;;;;;;-3.92;83.71;102926.41;6066010;28;20326;-72
2022/12/17 23:44:04;;;;;;;7.20;6.03;;;;;;;-3.70;83.88;102929.09;6090349;28;20236;-72
2022/12/17 23:47:26;;;;;;;10.73;6.73;;;;;;;-3.72;82.36;102927.34;6082932;28;20240;-72
2022/12/17 23:50:47;;;;;;;9.07;6.13;;;;;;;-3.89;83.55;102932.56;6072183;28;20244;-72
2022/12/17 23:54:08;;;;;;;9.20;7.87;;;;;;;-3.76;82.68;102939.63;6095910;28;20232;-73
2022/12/17 23:57:29;;;;;;;7.43;6.77;;;;;;;-3.96;83.23;102948.34;6083888;28;20505;-72
